Hauptseite
METAR-TAF:

METAR-TAF

Flughäfen :

Flughafen Dortmund

Dortmund, Deutschland

Breite: 51-31N, Länge: 007-37E, Höhe: 127 m

Beobachtung

Neuester Wetterbericht von vor 37 Minuten, um 00:20 UTC
Wind 9 kt aus Ost/Nordost
Temperatur 10°C
Luftfeuchtigkeit 57%
Luftdruck 1004 hPa
Sichtweite 10 km oder mehr

METAR: EDLW 230020Z AUTO 07009KT 9999 // NCD 10/02 Q1004

Zeit: 02:57 (00:57 UTC)

Prognose

Neuester Wetterbericht von vor 7 Stunden und 57 Minuten, um 17:00 UTC
Gültige Prognose vom 22 um 18 UTC bis 23 um 18 UTC
Wind 13 kt aus Ost
Sichtweite 10 km oder mehr
keine Wolken unter 1500 m und keine Kumulonimbus oder Gewitterwolken
Übergehend zu
vom 23 um 01 UTC bis 23 um 03 UTC
Wind 8 kt aus Ost
Übergehend zu
vom 23 um 07 UTC bis 23 um 10 UTC
Wind 15 kt aus Ost, Böen bis zu 25 kt

TAF: EDLW 221700Z 2218/2318 08013KT CAVOK BECMG 2301/2303 08008KT BECMG 2307/2310 08015G25KT

Wetterbeobachtungen und Prognosen von mehr als 4000 Flughäfen (METAR und TAF Bericht).

Die verfügbaren Stationen werden durch gelbe und rote Markierungen auf der Karte dargestellt.

Führen Sie die Maus auf sie, um den Namen der Station zu sehen.

Darauf klicken, um die Beobachtung von Wetterbeobachtungen und Prognosen zu sehen.

Um die Karte zu ändern : klicken Sie auf den grünen Tasten mit einem schwarzen Kreuz Zum Vergrößern, auf den grünen Button mit einem Gedankenstrich zu verkleinern, oder auf die grünen Pfeile für benachbarte Karten.


METAR-TAF: